createdAt,value
2022-11-16T00:03:57.683Z,75483.38
2022-11-16T00:13:59.758Z,75477.31
2022-11-16T00:24:05.755Z,75451.00
2022-11-16T00:34:08.716Z,75457.06
2022-11-16T00:44:12.382Z,75438.88
2022-11-16T00:54:14.898Z,75436.84
2022-11-16T01:04:17.026Z,75436.84
2022-11-16T01:14:21.926Z,75414.56
2022-11-16T01:24:27.046Z,75406.47
2022-11-16T01:34:33.883Z,75406.47
2022-11-16T01:44:41.674Z,75402.44
2022-11-16T01:54:52.493Z,75400.41
2022-11-16T02:04:59.115Z,75380.19
2022-11-16T02:15:28.280Z,75380.19
2022-11-16T02:26:19.388Z,75380.19
2022-11-16T02:36:23.317Z,75374.09
2022-11-16T02:46:29.244Z,75366.00
2022-11-16T02:56:42.613Z,75351.84
2022-11-16T03:06:47.228Z,75333.63
2022-11-16T03:16:52.942Z,75351.84
2022-11-16T03:27:16.897Z,75335.66
2022-11-16T03:37:24.664Z,75329.59
2022-11-16T03:47:28.228Z,75327.56
2022-11-16T03:57:32.800Z,75321.50
2022-11-16T04:07:54.075Z,75325.53
2022-11-16T04:18:14.833Z,75313.41
2022-11-16T04:28:24.379Z,75299.22
2022-11-16T04:38:32.271Z,75301.25
2022-11-16T04:48:34.813Z,75305.31
2022-11-16T04:58:39.792Z,75297.22
2022-11-16T05:08:45.850Z,75315.41
2022-11-16T05:19:10.303Z,75313.41
2022-11-16T05:29:16.660Z,75317.44
2022-11-16T05:39:21.902Z,75317.44
2022-11-16T05:49:28.704Z,75317.44
2022-11-16T05:59:30.825Z,75317.44
2022-11-16T06:09:41.294Z,75317.44
2022-11-16T06:19:53.426Z,75325.53
2022-11-16T06:29:56.451Z,75307.31
2022-11-16T06:40:03.900Z,75303.28
2022-11-16T06:50:21.477Z,75303.28
2022-11-16T07:00:25.925Z,75313.41
2022-11-16T07:10:31.612Z,75301.25
2022-11-16T07:20:40.188Z,75309.34
2022-11-16T07:30:48.244Z,75301.25
2022-11-16T07:41:00.712Z,75317.44
2022-11-16T07:51:09.483Z,75313.41
2022-11-16T08:01:20.365Z,75305.31
2022-11-16T08:11:30.948Z,75305.31
2022-11-16T08:21:35.313Z,75299.22
2022-11-16T08:31:38.392Z,75305.31
2022-11-16T08:41:48.313Z,75313.41
2022-11-16T08:51:52.567Z,75297.22
2022-11-16T09:01:55.928Z,75313.41
2022-11-16T09:11:58.061Z,75289.13
2022-11-16T09:22:00.552Z,75297.22
2022-11-16T09:32:05.065Z,75281.03
2022-11-16T09:42:17.275Z,75272.94
2022-11-16T09:52:39.334Z,75258.75
2022-11-16T10:02:44.673Z,75252.69
2022-11-16T10:12:57.335Z,75240.56
2022-11-16T10:23:16.232Z,75226.38
2022-11-16T10:33:20.139Z,75208.16
2022-11-16T10:43:27.566Z,75198.06
2022-11-16T10:53:35.117Z,75173.78
2022-11-16T11:03:42.357Z,75177.81
2022-11-16T11:13:45.274Z,75208.16
2022-11-16T11:23:52.538Z,75202.09
2022-11-16T11:34:21.695Z,75204.13
2022-11-16T11:44:35.699Z,75189.97
2022-11-16T11:54:47.040Z,75173.78
2022-11-16T12:04:59.327Z,75179.84
2022-11-16T12:15:26.063Z,75216.25
2022-11-16T12:25:28.032Z,75248.66
2022-11-16T12:36:02.494Z,75323.50
2022-11-16T12:46:41.906Z,75390.28
2022-11-16T12:56:49.169Z,75440.88
2022-11-16T13:07:10.384Z,75471.25
2022-11-16T13:17:19.824Z,75497.56
2022-11-16T13:27:39.547Z,75497.56
2022-11-16T13:37:54.983Z,75503.63
2022-11-16T13:48:00.800Z,75523.84
2022-11-16T13:58:04.800Z,75538.03
2022-11-16T14:08:24.275Z,75538.03
2022-11-16T14:18:37.413Z,75584.56
2022-11-16T14:29:17.175Z,75606.84
2022-11-16T14:39:51.681Z,75627.06
2022-11-16T14:49:56.996Z,75618.97
2022-11-16T15:00:09.866Z,75612.91
2022-11-16T15:10:20.221Z,75600.75
2022-11-16T15:20:26.980Z,75612.91
2022-11-16T15:30:34.440Z,75627.06
2022-11-16T15:40:38.737Z,75602.78
2022-11-16T15:50:40.886Z,75612.91
2022-11-16T16:00:43.168Z,75582.53
2022-11-16T16:10:47.435Z,75584.56
2022-11-16T16:20:54.161Z,75590.63
2022-11-16T16:30:58.548Z,75612.91
2022-11-16T16:41:07.995Z,75598.72
2022-11-16T16:51:11.866Z,75596.72
2022-11-16T17:01:19.307Z,75584.56
2022-11-16T17:11:23.830Z,75580.53
2022-11-16T17:21:30.662Z,75574.44
2022-11-16T17:31:37.355Z,75572.44
2022-11-16T17:41:41.477Z,75568.38
2022-11-16T17:51:45.706Z,75562.31
2022-11-16T18:01:48.748Z,75568.38
2022-11-16T18:11:53.279Z,75606.84
2022-11-16T18:21:55.298Z,75600.75
2022-11-16T18:31:57.573Z,75604.81
2022-11-16T18:41:59.652Z,75586.59
2022-11-16T18:52:06.282Z,75598.72
2022-11-16T19:02:16.473Z,75578.50
2022-11-16T19:12:20.869Z,75592.66
2022-11-16T19:22:22.816Z,75625.03
2022-11-16T19:32:27.132Z,75600.75
2022-11-16T19:42:31.547Z,75604.81
2022-11-16T19:52:33.517Z,75588.63
2022-11-16T20:02:38.920Z,75612.91
2022-11-16T20:12:45.513Z,75600.75
2022-11-16T20:22:50.975Z,75618.97
2022-11-16T20:33:00.531Z,75586.59
2022-11-16T20:43:02.766Z,75578.50
2022-11-16T20:53:07.200Z,75572.44
2022-11-16T21:03:11.765Z,75580.53
2022-11-16T21:13:34.882Z,75578.50
2022-11-16T21:23:37.514Z,75568.38
2022-11-16T21:33:39.739Z,75529.94
2022-11-16T21:43:47.177Z,75542.06
2022-11-16T21:53:51.577Z,75558.25
2022-11-16T22:04:14.794Z,75580.53
2022-11-16T22:14:16.833Z,75572.44
2022-11-16T22:24:23.789Z,75576.47
2022-11-16T22:34:30.653Z,75564.34
2022-11-16T22:44:32.634Z,75560.28
2022-11-16T22:54:38.029Z,75572.44
2022-11-16T23:04:40.017Z,75568.38
2022-11-16T23:15:00.552Z,75574.44
2022-11-16T23:25:21.671Z,75568.38
2022-11-16T23:35:23.728Z,75588.63
2022-11-16T23:45:25.703Z,75600.75
2022-11-16T23:55:31.437Z,75608.84
